Ann Arbor, MI

2:10 PM EDT on October 24, 2014 (GMT -0400)
Livingston County | Change Station
CLOSE
Current Station
Airport
Location: Howell,
Elevation: 961 ft
Nearby Weather Stations

Elev 961 ft 42.63 °N, 83.98 °W | Updated 15 minutes ago

Overcast
Overcast
57 °F
Feels Like 57 °F
N
6
Wind Variable Wind from SSW

Today
High -- | Low -- °F
--% Chance of Precip.
Yesterday
High -- | Low -- °F
Precip. -- in
7:58 AM 6:39 PM
New Moon, 1% visible
Pressure 30.02 in
Visibility 10.0 miles
Clouds Overcast 3100 ft
Dew Point 45 °F
Humidity 63%
Rainfall 0.00 in
Snow Depth Not available.
UV 1 out of 12
Pollen .10 out of 12
PM2.5 Good
Flu Activity Sporadic
METAR KOZW 241755Z AUTO 20005KT 10SM OVC031 14/07 A3002 RMK AO2 T01400071 10140 20019

More Conditions Fewer Conditions

Pressure 30.02 in
Visibility 10.0 miles
Clouds Overcast 3100 ft
Dew Point 45 °F
Humidity 63%
Rainfall 0.00 in
Snow Depth Not available.
UV 1 out of 12
Pollen .10 out of 12
PM2.5 Good
Flu Activity Sporadic
METAR KOZW 241755Z AUTO 20005KT 10SM OVC031 14/07 A3002 RMK AO2 T01400071 10140 20019

More Conditions Fewer Conditions

10-Day Weather Forecast

Almanac

Astronomy

Oct. 24, 2014 Rise Set
Actual Time 7:58 AM EDT 6:39 PM EDT
Civil Twilight 7:29 AM EDT 7:08 PM EDT
Nautical Twilight 6:57 AM EDT 7:40 PM EDT
Astronomical Twilight 6:24 AM EDT 8:13 PM EDT
Moon 8:37 AM EDT 7:18 PM EDT
Length of Visible Light 11h 38m
Length of Day
10h 40m
Tomorrow will be 2m 38s shorter.
New Moon, 1% of the Moon is Illuminated
Today
New Moon
Oct 30
First Quarter
Nov 6
Full
Nov 14
Last Quarter
Nov 22
New

Today's Extremes

State Highs State Lows

Community

WunderPhotos

Upload Photos

1,764,628 photos uploaded!

Nearby

Air Quality

  Air Quality AQ Index Pollutant
Yesterday Good
PM2.5
Current Good
PM2.5
Friday Moderate
PM2.5
Saturday Good
PM2.5
Sunday Good
PM2.5
Monday Moderate
PM2.5

Snow Depth

Station Depth Elevation
No new snow has been reported.

Earthquake Activity

City Distance Mag. Time & Date
No recent earthquake activity has been reported nearby.
Minimum magnitude displayed is 2.5.

Coastal Water Temperatures

Place Temperature
No Stations Reporting

Nearby Weather Stations